createdAt,value
2022-10-29T00:03:02.945Z,59.00
2022-10-29T00:13:01.436Z,58.70
2022-10-29T00:22:58.969Z,62.10
2022-10-29T00:32:56.582Z,69.70
2022-10-29T00:42:54.258Z,72.60
2022-10-29T00:52:52.253Z,79.10
2022-10-29T01:02:49.657Z,80.10
2022-10-29T01:13:05.216Z,83.30
2022-10-29T01:23:05.261Z,87.20
2022-10-29T01:33:02.637Z,90.70
2022-10-29T01:43:14.652Z,86.80
2022-10-29T01:53:12.312Z,79.80
2022-10-29T02:03:09.443Z,76.90
2022-10-29T02:13:06.996Z,74.80
2022-10-29T02:23:04.182Z,75.30
2022-10-29T02:33:01.499Z,74.70
2022-10-29T02:42:58.742Z,75.30
2022-10-29T02:52:56.149Z,74.00
2022-10-29T03:02:53.487Z,75.60
2022-10-29T03:12:51.043Z,76.80
2022-10-29T03:22:48.180Z,83.00
2022-10-29T03:32:46.227Z,84.00
2022-10-29T03:42:43.395Z,85.70
2022-10-29T03:52:40.674Z,88.70
2022-10-29T04:02:37.912Z,89.30
2022-10-29T04:12:35.157Z,92.80
2022-10-29T04:23:54.716Z,95.00
2022-10-29T04:32:49.757Z,94.50
2022-10-29T04:42:46.898Z,95.00
2022-10-29T04:52:44.039Z,94.00
2022-10-29T05:02:41.254Z,99.60
2022-10-29T05:12:38.421Z,99.90
2022-10-29T05:22:35.502Z,99.90
2022-10-29T05:32:32.654Z,99.90
2022-10-29T05:42:29.824Z,99.90
2022-10-29T05:52:26.985Z,99.90
2022-10-29T06:02:24.447Z,99.90
2022-10-29T06:12:21.812Z,99.90
2022-10-29T06:22:18.971Z,99.90
2022-10-29T06:32:16.228Z,99.90
2022-10-29T06:42:13.383Z,99.90
2022-10-29T06:52:10.529Z,99.90
2022-10-29T07:02:07.637Z,99.90
2022-10-29T07:12:04.858Z,99.90
2022-10-29T07:22:02.018Z,99.90
2022-10-29T07:31:59.239Z,99.90
2022-10-29T07:41:59.154Z,99.90
2022-10-29T07:51:56.745Z,99.90
2022-10-29T08:01:53.898Z,99.90
2022-10-29T08:11:51.147Z,89.60
2022-10-29T08:21:48.329Z,85.90
2022-10-29T08:31:45.558Z,77.60
2022-10-29T08:41:50.591Z,72.60
2022-10-29T08:52:04.612Z,76.40
2022-10-29T09:02:01.795Z,76.10
2022-10-29T09:11:58.962Z,73.00
2022-10-29T09:22:11.889Z,67.70
2022-10-29T09:32:11.998Z,64.80
2022-10-29T09:42:13.336Z,58.30
2022-10-29T09:52:14.744Z,57.20
2022-10-29T10:02:29.931Z,50.00
2022-10-29T10:12:28.382Z,40.20
2022-10-29T10:22:25.513Z,35.60
2022-10-29T10:32:25.697Z,32.30
2022-10-29T10:42:25.878Z,31.10
2022-10-29T10:52:30.792Z,29.60
2022-10-29T11:02:28.056Z,28.20
2022-10-29T11:12:31.602Z,28.00
2022-10-29T11:22:28.671Z,29.30
2022-10-29T11:42:41.668Z,24.40
2022-10-29T11:52:39.047Z,24.70
2022-10-29T12:02:59.739Z,26.90
2022-10-29T12:13:01.806Z,27.80
2022-10-29T12:23:28.939Z,29.80
2022-10-29T12:33:52.279Z,33.70
2022-10-29T12:53:34.952Z,32.40
2022-10-29T13:13:18.681Z,31.00
2022-10-29T13:25:38.464Z,33.70
2022-10-29T13:35:40.048Z,32.20
2022-10-29T13:45:41.325Z,33.70
2022-10-29T13:55:40.183Z,33.00
2022-10-29T14:05:53.285Z,34.80
2022-10-29T14:16:47.149Z,34.20
2022-10-29T14:26:46.307Z,34.60
2022-10-29T14:36:47.166Z,37.90
2022-10-29T14:47:11.666Z,45.70
2022-10-29T14:57:16.302Z,49.80
2022-10-29T15:07:31.147Z,55.20
2022-10-29T15:17:31.277Z,59.10
2022-10-29T15:27:28.867Z,64.50
2022-10-29T15:37:32.303Z,72.70
2022-10-29T15:47:29.865Z,79.80
2022-10-29T15:57:27.775Z,83.20
2022-10-29T16:07:25.184Z,85.00
2022-10-29T16:17:22.638Z,91.20
2022-10-29T16:27:20.119Z,96.80
2022-10-29T16:37:19.467Z,96.90
2022-10-29T16:47:16.947Z,99.90
2022-10-29T16:57:14.515Z,99.90
2022-10-29T17:07:11.878Z,99.90
2022-10-29T17:17:09.186Z,99.90
2022-10-29T17:27:06.538Z,99.90
2022-10-29T17:37:04.066Z,99.90
2022-10-29T17:47:01.446Z,99.90
2022-10-29T17:56:58.768Z,99.90
2022-10-29T18:06:56.364Z,99.90
2022-10-29T18:16:53.697Z,99.90
2022-10-29T18:26:51.578Z,99.90
2022-10-29T18:36:48.905Z,99.90
2022-10-29T18:46:46.395Z,99.90
2022-10-29T18:56:43.816Z,99.90
2022-10-29T19:06:41.356Z,99.90
2022-10-29T19:16:38.714Z,99.90
2022-10-29T19:26:36.992Z,99.90
2022-10-29T19:36:36.556Z,99.90
2022-10-29T19:46:34.206Z,99.90
2022-10-29T19:56:31.574Z,99.90
2022-10-29T20:06:29.057Z,99.90
2022-10-29T20:16:26.557Z,99.90
2022-10-29T20:26:24.038Z,99.90
2022-10-29T20:36:21.830Z,99.90
2022-10-29T20:46:19.456Z,99.90
2022-10-29T20:56:17.135Z,99.90
2022-10-29T21:06:17.921Z,99.90
2022-10-29T21:16:24.735Z,99.90
2022-10-29T21:26:24.764Z,99.90
2022-10-29T21:36:22.491Z,99.90
2022-10-29T21:46:19.852Z,99.90
2022-10-29T21:56:17.429Z,99.90
2022-10-29T22:06:17.897Z,99.90
2022-10-29T22:16:15.316Z,99.90
2022-10-29T22:26:13.965Z,99.90
2022-10-29T22:36:22.918Z,99.90
2022-10-29T22:46:21.868Z,99.90
2022-10-29T22:56:27.808Z,99.90
2022-10-29T23:06:25.340Z,99.90
2022-10-29T23:16:24.076Z,99.90
2022-10-29T23:26:22.715Z,99.90
2022-10-29T23:36:22.247Z,99.90
2022-10-29T23:46:20.199Z,99.90
2022-10-29T23:56:17.605Z,99.90
